sensor_id;sensor_type;location;lat;lon;timestamp;temperature;humidity
21580;DHT22;10951;59.656;9.666;2024-01-06T00:00:16;-23.50;89.20
21580;DHT22;10951;59.656;9.666;2024-01-06T00:02:44;-23.40;89.30
21580;DHT22;10951;59.656;9.666;2024-01-06T00:05:12;-23.40;89.00
21580;DHT22;10951;59.656;9.666;2024-01-06T00:07:39;-23.40;89.50
21580;DHT22;10951;59.656;9.666;2024-01-06T00:10:07;-23.40;90.10
21580;DHT22;10951;59.656;9.666;2024-01-06T00:12:34;-23.40;90.00
21580;DHT22;10951;59.656;9.666;2024-01-06T00:15:02;-23.30;89.60
21580;DHT22;10951;59.656;9.666;2024-01-06T00:17:29;-23.20;88.80
21580;DHT22;10951;59.656;9.666;2024-01-06T00:19:56;-23.20;88.00
21580;DHT22;10951;59.656;9.666;2024-01-06T00:22:24;-23.30;87.10
21580;DHT22;10951;59.656;9.666;2024-01-06T00:24:51;-23.30;86.80
21580;DHT22;10951;59.656;9.666;2024-01-06T00:27:18;-23.40;86.60
21580;DHT22;10951;59.656;9.666;2024-01-06T00:29:45;-23.50;86.30
21580;DHT22;10951;59.656;9.666;2024-01-06T00:32:12;-23.50;87.00
21580;DHT22;10951;59.656;9.666;2024-01-06T00:34:39;-23.50;87.70
21580;DHT22;10951;59.656;9.666;2024-01-06T00:37:06;-23.60;88.20
21580;DHT22;10951;59.656;9.666;2024-01-06T00:39:33;-23.50;89.00
21580;DHT22;10951;59.656;9.666;2024-01-06T00:42:01;-23.40;88.50
21580;DHT22;10951;59.656;9.666;2024-01-06T00:44:28;-23.40;87.90
21580;DHT22;10951;59.656;9.666;2024-01-06T00:46:55;-23.50;88.00
21580;DHT22;10951;59.656;9.666;2024-01-06T00:49:22;-23.40;88.20
21580;DHT22;10951;59.656;9.666;2024-01-06T00:51:49;-23.40;87.80
21580;DHT22;10951;59.656;9.666;2024-01-06T00:54:17;-23.50;87.40
21580;DHT22;10951;59.656;9.666;2024-01-06T00:56:44;-23.50;87.50
21580;DHT22;10951;59.656;9.666;2024-01-06T00:59:11;-23.40;88.40
21580;DHT22;10951;59.656;9.666;2024-01-06T01:01:38;-23.20;90.00
21580;DHT22;10951;59.656;9.666;2024-01-06T01:04:05;-23.00;88.50
21580;DHT22;10951;59.656;9.666;2024-01-06T01:06:33;-23.00;87.20
21580;DHT22;10951;59.656;9.666;2024-01-06T01:09:00;-23.00;86.50
21580;DHT22;10951;59.656;9.666;2024-01-06T01:11:27;-23.10;85.90
21580;DHT22;10951;59.656;9.666;2024-01-06T01:13:54;-23.20;86.00
21580;DHT22;10951;59.656;9.666;2024-01-06T01:16:21;-23.30;86.80
21580;DHT22;10951;59.656;9.666;2024-01-06T01:18:48;-23.30;87.50
21580;DHT22;10951;59.656;9.666;2024-01-06T01:21:16;-23.40;87.50
21580;DHT22;10951;59.656;9.666;2024-01-06T01:23:43;-23.50;87.90
21580;DHT22;10951;59.656;9.666;2024-01-06T01:26:10;-23.50;88.40
21580;DHT22;10951;59.656;9.666;2024-01-06T01:28:38;-23.50;88.30
21580;DHT22;10951;59.656;9.666;2024-01-06T01:31:05;-23.60;87.70
21580;DHT22;10951;59.656;9.666;2024-01-06T01:33:32;-23.70;87.50
21580;DHT22;10951;59.656;9.666;2024-01-06T01:36:00;-23.60;87.90
21580;DHT22;10951;59.656;9.666;2024-01-06T01:38:28;-23.60;88.00
21580;DHT22;10951;59.656;9.666;2024-01-06T01:40:56;-23.60;87.80
21580;DHT22;10951;59.656;9.666;2024-01-06T01:43:23;-23.60;87.40
21580;DHT22;10951;59.656;9.666;2024-01-06T01:45:53;-23.70;87.30
21580;DHT22;10951;59.656;9.666;2024-01-06T01:48:21;-23.80;87.30
21580;DHT22;10951;59.656;9.666;2024-01-06T01:50:51;-23.80;88.00
21580;DHT22;10951;59.656;9.666;2024-01-06T01:53:19;-23.80;88.50
21580;DHT22;10951;59.656;9.666;2024-01-06T01:55:47;-23.70;89.60
21580;DHT22;10951;59.656;9.666;2024-01-06T01:58:16;-23.70;89.60
21580;DHT22;10951;59.656;9.666;2024-01-06T02:00:42;-23.60;89.40
21580;DHT22;10951;59.656;9.666;2024-01-06T02:03:13;-23.60;88.90
21580;DHT22;10951;59.656;9.666;2024-01-06T02:05:41;-23.50;88.60
21580;DHT22;10951;59.656;9.666;2024-01-06T02:08:08;-23.50;88.40
21580;DHT22;10951;59.656;9.666;2024-01-06T02:10:35;-23.50;87.90
21580;DHT22;10951;59.656;9.666;2024-01-06T02:13:12;-23.50;87.20
21580;DHT22;10951;59.656;9.666;2024-01-06T02:15:39;-23.40;87.40
21580;DHT22;10951;59.656;9.666;2024-01-06T02:18:07;-23.50;86.90
21580;DHT22;10951;59.656;9.666;2024-01-06T02:20:34;-23.60;86.90
21580;DHT22;10951;59.656;9.666;2024-01-06T02:23:02;-23.60;87.20
21580;DHT22;10951;59.656;9.666;2024-01-06T02:25:29;-23.70;87.10
21580;DHT22;10951;59.656;9.666;2024-01-06T02:27:56;-23.70;87.60
21580;DHT22;10951;59.656;9.666;2024-01-06T02:30:24;-23.70;88.60
21580;DHT22;10951;59.656;9.666;2024-01-06T02:32:51;-23.60;90.80
21580;DHT22;10951;59.656;9.666;2024-01-06T02:35:19;-23.50;91.50
21580;DHT22;10951;59.656;9.666;2024-01-06T02:37:46;-23.40;91.50
21580;DHT22;10951;59.656;9.666;2024-01-06T02:40:13;-23.30;91.10
21580;DHT22;10951;59.656;9.666;2024-01-06T02:42:41;-23.30;91.10
21580;DHT22;10951;59.656;9.666;2024-01-06T02:45:08;-23.20;91.00
21580;DHT22;10951;59.656;9.666;2024-01-06T02:47:36;-23.20;90.90
21580;DHT22;10951;59.656;9.666;2024-01-06T02:50:04;-23.20;89.60
21580;DHT22;10951;59.656;9.666;2024-01-06T02:52:31;-23.30;87.80
21580;DHT22;10951;59.656;9.666;2024-01-06T02:55:00;-23.40;87.50
21580;DHT22;10951;59.656;9.666;2024-01-06T02:57:30;-23.40;86.90
21580;DHT22;10951;59.656;9.666;2024-01-06T02:59:58;-23.40;87.60
21580;DHT22;10951;59.656;9.666;2024-01-06T03:02:24;-23.30;88.30
21580;DHT22;10951;59.656;9.666;2024-01-06T03:04:52;-23.30;89.10
21580;DHT22;10951;59.656;9.666;2024-01-06T03:07:19;-23.10;90.00
21580;DHT22;10951;59.656;9.666;2024-01-06T03:09:46;-23.20;89.50
21580;DHT22;10951;59.656;9.666;2024-01-06T03:12:13;-23.20;89.50
21580;DHT22;10951;59.656;9.666;2024-01-06T03:14:40;-23.20;89.40
21580;DHT22;10951;59.656;9.666;2024-01-06T03:17:07;-23.20;89.70
21580;DHT22;10951;59.656;9.666;2024-01-06T03:19:38;-23.20;89.80
21580;DHT22;10951;59.656;9.666;2024-01-06T03:22:06;-23.30;89.50
21580;DHT22;10951;59.656;9.666;2024-01-06T03:24:33;-23.30;89.40
21580;DHT22;10951;59.656;9.666;2024-01-06T03:27:00;-23.40;89.30
21580;DHT22;10951;59.656;9.666;2024-01-06T03:29:27;-23.60;89.10
21580;DHT22;10951;59.656;9.666;2024-01-06T03:31:54;-23.70;89.60
21580;DHT22;10951;59.656;9.666;2024-01-06T03:34:21;-23.70;90.20
21580;DHT22;10951;59.656;9.666;2024-01-06T03:36:49;-23.70;90.50
21580;DHT22;10951;59.656;9.666;2024-01-06T03:39:16;-23.60;89.70
21580;DHT22;10951;59.656;9.666;2024-01-06T03:41:43;-23.60;89.00
21580;DHT22;10951;59.656;9.666;2024-01-06T03:44:10;-23.60;89.00
21580;DHT22;10951;59.656;9.666;2024-01-06T03:46:37;-23.60;89.00
21580;DHT22;10951;59.656;9.666;2024-01-06T03:49:04;-23.60;89.30
21580;DHT22;10951;59.656;9.666;2024-01-06T03:51:32;-23.60;89.10
21580;DHT22;10951;59.656;9.666;2024-01-06T03:53:59;-23.60;88.60
21580;DHT22;10951;59.656;9.666;2024-01-06T03:56:26;-23.50;88.30
21580;DHT22;10951;59.656;9.666;2024-01-06T03:58:53;-23.50;88.10
21580;DHT22;10951;59.656;9.666;2024-01-06T04:01:20;-23.50;88.20
21580;DHT22;10951;59.656;9.666;2024-01-06T04:03:48;-23.50;88.00
21580;DHT22;10951;59.656;9.666;2024-01-06T04:06:15;-23.50;87.80
21580;DHT22;10951;59.656;9.666;2024-01-06T04:08:42;-23.50;87.70
21580;DHT22;10951;59.656;9.666;2024-01-06T04:11:09;-23.50;87.70
21580;DHT22;10951;59.656;9.666;2024-01-06T04:13:36;-23.50;87.80
21580;DHT22;10951;59.656;9.666;2024-01-06T04:16:04;-23.50;87.70
21580;DHT22;10951;59.656;9.666;2024-01-06T04:18:32;-23.50;87.40
21580;DHT22;10951;59.656;9.666;2024-01-06T04:20:59;-23.50;87.50
21580;DHT22;10951;59.656;9.666;2024-01-06T04:23:26;-23.40;88.10
21580;DHT22;10951;59.656;9.666;2024-01-06T04:25:53;-23.40;88.30
21580;DHT22;10951;59.656;9.666;2024-01-06T04:28:21;-23.30;88.80
21580;DHT22;10951;59.656;9.666;2024-01-06T04:30:48;-23.20;88.30
21580;DHT22;10951;59.656;9.666;2024-01-06T04:33:15;-23.20;88.40
21580;DHT22;10951;59.656;9.666;2024-01-06T04:35:43;-23.10;88.10
21580;DHT22;10951;59.656;9.666;2024-01-06T04:38:10;-23.10;87.70
21580;DHT22;10951;59.656;9.666;2024-01-06T04:40:37;-23.10;87.80
21580;DHT22;10951;59.656;9.666;2024-01-06T04:43:04;-23.10;88.00
21580;DHT22;10951;59.656;9.666;2024-01-06T04:45:31;-23.10;88.20
21580;DHT22;10951;59.656;9.666;2024-01-06T04:47:58;-23.10;88.40
21580;DHT22;10951;59.656;9.666;2024-01-06T04:50:26;-23.20;88.10
21580;DHT22;10951;59.656;9.666;2024-01-06T04:52:53;-23.20;87.70
21580;DHT22;10951;59.656;9.666;2024-01-06T04:55:20;-23.30;87.80
21580;DHT22;10951;59.656;9.666;2024-01-06T04:57:49;-23.30;88.30
21580;DHT22;10951;59.656;9.666;2024-01-06T05:00:16;-23.20;89.20
21580;DHT22;10951;59.656;9.666;2024-01-06T05:02:44;-23.30;89.50
21580;DHT22;10951;59.656;9.666;2024-01-06T05:05:11;-23.30;89.80
21580;DHT22;10951;59.656;9.666;2024-01-06T05:07:39;-23.30;89.80
21580;DHT22;10951;59.656;9.666;2024-01-06T05:10:06;-23.40;89.40
21580;DHT22;10951;59.656;9.666;2024-01-06T05:12:33;-23.40;90.00
21580;DHT22;10951;59.656;9.666;2024-01-06T05:15:00;-23.30;90.80
21580;DHT22;10951;59.656;9.666;2024-01-06T05:17:28;-23.20;91.30
21580;DHT22;10951;59.656;9.666;2024-01-06T05:19:55;-23.20;91.00
21580;DHT22;10951;59.656;9.666;2024-01-06T05:22:22;-23.20;90.70
21580;DHT22;10951;59.656;9.666;2024-01-06T05:24:49;-23.20;90.50
21580;DHT22;10951;59.656;9.666;2024-01-06T05:27:20;-23.20;90.50
21580;DHT22;10951;59.656;9.666;2024-01-06T05:29:47;-23.30;90.60
21580;DHT22;10951;59.656;9.666;2024-01-06T05:32:16;-23.20;90.70
21580;DHT22;10951;59.656;9.666;2024-01-06T05:34:45;-23.20;90.70
21580;DHT22;10951;59.656;9.666;2024-01-06T05:37:13;-23.20;90.90
21580;DHT22;10951;59.656;9.666;2024-01-06T05:39:40;-23.20;90.70
21580;DHT22;10951;59.656;9.666;2024-01-06T05:42:10;-23.10;90.60
21580;DHT22;10951;59.656;9.666;2024-01-06T05:44:41;-23.20;90.50
21580;DHT22;10951;59.656;9.666;2024-01-06T05:47:08;-23.20;90.40
21580;DHT22;10951;59.656;9.666;2024-01-06T05:49:36;-23.30;90.60
21580;DHT22;10951;59.656;9.666;2024-01-06T05:52:03;-23.30;90.80
21580;DHT22;10951;59.656;9.666;2024-01-06T05:54:30;-23.30;90.90
21580;DHT22;10951;59.656;9.666;2024-01-06T05:56:57;-23.30;90.90
21580;DHT22;10951;59.656;9.666;2024-01-06T05:59:25;-23.30;91.30
21580;DHT22;10951;59.656;9.666;2024-01-06T06:01:52;-23.30;91.50
21580;DHT22;10951;59.656;9.666;2024-01-06T06:04:19;-23.30;91.60
21580;DHT22;10951;59.656;9.666;2024-01-06T06:06:46;-23.20;91.70
21580;DHT22;10951;59.656;9.666;2024-01-06T06:09:13;-23.20;91.80
21580;DHT22;10951;59.656;9.666;2024-01-06T06:11:41;-23.10;91.60
21580;DHT22;10951;59.656;9.666;2024-01-06T06:14:08;-23.10;91.40
21580;DHT22;10951;59.656;9.666;2024-01-06T06:16:35;-23.00;91.20
21580;DHT22;10951;59.656;9.666;2024-01-06T06:19:02;-23.00;90.90
21580;DHT22;10951;59.656;9.666;2024-01-06T06:21:30;-23.00;90.70
21580;DHT22;10951;59.656;9.666;2024-01-06T06:23:58;-23.00;90.20
21580;DHT22;10951;59.656;9.666;2024-01-06T06:26:25;-23.00;90.00
21580;DHT22;10951;59.656;9.666;2024-01-06T06:28:52;-23.00;89.70
21580;DHT22;10951;59.656;9.666;2024-01-06T06:31:19;-23.00;89.70
21580;DHT22;10951;59.656;9.666;2024-01-06T06:33:46;-23.00;89.70
21580;DHT22;10951;59.656;9.666;2024-01-06T06:36:14;-23.00;89.70
21580;DHT22;10951;59.656;9.666;2024-01-06T06:38:41;-23.00;89.80
21580;DHT22;10951;59.656;9.666;2024-01-06T06:41:08;-23.00;89.80
21580;DHT22;10951;59.656;9.666;2024-01-06T06:43:35;-23.00;89.50
21580;DHT22;10951;59.656;9.666;2024-01-06T06:46:02;-23.00;89.00
21580;DHT22;10951;59.656;9.666;2024-01-06T06:48:29;-23.00;88.90
21580;DHT22;10951;59.656;9.666;2024-01-06T06:50:56;-23.00;88.60
21580;DHT22;10951;59.656;9.666;2024-01-06T06:53:23;-23.00;88.30
21580;DHT22;10951;59.656;9.666;2024-01-06T06:55:50;-23.00;88.50
21580;DHT22;10951;59.656;9.666;2024-01-06T06:58:17;-23.00;88.30
21580;DHT22;10951;59.656;9.666;2024-01-06T07:00:45;-22.90;88.70
21580;DHT22;10951;59.656;9.666;2024-01-06T07:03:12;-22.90;87.70
21580;DHT22;10951;59.656;9.666;2024-01-06T07:05:41;-22.90;88.00
21580;DHT22;10951;59.656;9.666;2024-01-06T07:08:08;-22.90;88.70
21580;DHT22;10951;59.656;9.666;2024-01-06T07:10:35;-22.90;89.20
21580;DHT22;10951;59.656;9.666;2024-01-06T07:13:02;-23.00;89.50
21580;DHT22;10951;59.656;9.666;2024-01-06T07:15:30;-22.90;90.10
21580;DHT22;10951;59.656;9.666;2024-01-06T07:17:57;-22.80;90.10
21580;DHT22;10951;59.656;9.666;2024-01-06T07:20:24;-22.80;90.00
21580;DHT22;10951;59.656;9.666;2024-01-06T07:22:51;-22.80;90.30
21580;DHT22;10951;59.656;9.666;2024-01-06T07:25:19;-22.80;90.30
21580;DHT22;10951;59.656;9.666;2024-01-06T07:27:46;-22.80;90.50
21580;DHT22;10951;59.656;9.666;2024-01-06T07:30:13;-22.80;90.50
21580;DHT22;10951;59.656;9.666;2024-01-06T07:32:41;-22.70;90.60
21580;DHT22;10951;59.656;9.666;2024-01-06T07:35:09;-22.60;91.30
21580;DHT22;10951;59.656;9.666;2024-01-06T07:37:36;-22.50;93.00
21580;DHT22;10951;59.656;9.666;2024-01-06T07:40:03;-22.30;93.80
21580;DHT22;10951;59.656;9.666;2024-01-06T07:42:30;-22.10;93.30
21580;DHT22;10951;59.656;9.666;2024-01-06T07:44:58;-22.00;92.00
21580;DHT22;10951;59.656;9.666;2024-01-06T07:47:25;-22.10;91.20
21580;DHT22;10951;59.656;9.666;2024-01-06T07:49:52;-22.10;90.70
21580;DHT22;10951;59.656;9.666;2024-01-06T07:52:20;-22.20;90.40
21580;DHT22;10951;59.656;9.666;2024-01-06T07:54:47;-22.20;90.30
21580;DHT22;10951;59.656;9.666;2024-01-06T07:57:15;-22.20;90.10
21580;DHT22;10951;59.656;9.666;2024-01-06T07:59:42;-22.20;89.30
21580;DHT22;10951;59.656;9.666;2024-01-06T08:02:09;-22.20;89.20
21580;DHT22;10951;59.656;9.666;2024-01-06T08:04:36;-22.20;89.60
21580;DHT22;10951;59.656;9.666;2024-01-06T08:07:04;-22.20;90.20
21580;DHT22;10951;59.656;9.666;2024-01-06T08:09:31;-22.20;90.90
21580;DHT22;10951;59.656;9.666;2024-01-06T08:11:58;-22.20;91.40
21580;DHT22;10951;59.656;9.666;2024-01-06T08:14:25;-22.10;91.50
21580;DHT22;10951;59.656;9.666;2024-01-06T08:16:52;-22.10;91.40
21580;DHT22;10951;59.656;9.666;2024-01-06T08:19:19;-22.00;91.40
21580;DHT22;10951;59.656;9.666;2024-01-06T08:21:47;-22.00;91.60
21580;DHT22;10951;59.656;9.666;2024-01-06T08:24:15;-22.10;91.30
21580;DHT22;10951;59.656;9.666;2024-01-06T08:26:42;-22.10;91.40
21580;DHT22;10951;59.656;9.666;2024-01-06T08:29:09;-22.10;91.60
21580;DHT22;10951;59.656;9.666;2024-01-06T08:31:36;-22.10;91.60
21580;DHT22;10951;59.656;9.666;2024-01-06T08:34:03;-22.00;92.00
21580;DHT22;10951;59.656;9.666;2024-01-06T08:36:33;-21.90;92.50
21580;DHT22;10951;59.656;9.666;2024-01-06T08:39:01;-21.80;92.20
21580;DHT22;10951;59.656;9.666;2024-01-06T08:41:28;-21.80;91.70
21580;DHT22;10951;59.656;9.666;2024-01-06T08:43:55;-21.80;91.60
21580;DHT22;10951;59.656;9.666;2024-01-06T08:46:22;-21.80;91.50
21580;DHT22;10951;59.656;9.666;2024-01-06T08:48:49;-21.80;91.40
21580;DHT22;10951;59.656;9.666;2024-01-06T08:51:16;-21.80;91.30
21580;DHT22;10951;59.656;9.666;2024-01-06T08:53:44;-21.70;91.20
21580;DHT22;10951;59.656;9.666;2024-01-06T08:56:11;-21.60;91.00
21580;DHT22;10951;59.656;9.666;2024-01-06T08:58:38;-21.60;90.70
21580;DHT22;10951;59.656;9.666;2024-01-06T09:01:05;-21.50;90.00
21580;DHT22;10951;59.656;9.666;2024-01-06T09:03:32;-21.60;89.30
21580;DHT22;10951;59.656;9.666;2024-01-06T09:05:59;-21.60;89.30
21580;DHT22;10951;59.656;9.666;2024-01-06T09:08:27;-21.60;89.60
21580;DHT22;10951;59.656;9.666;2024-01-06T09:10:55;-21.50;90.00
21580;DHT22;10951;59.656;9.666;2024-01-06T09:13:24;-21.50;90.10
21580;DHT22;10951;59.656;9.666;2024-01-06T09:15:52;-21.40;90.30
21580;DHT22;10951;59.656;9.666;2024-01-06T09:18:19;-21.30;90.50
21580;DHT22;10951;59.656;9.666;2024-01-06T09:20:46;-21.20;90.80
21580;DHT22;10951;59.656;9.666;2024-01-06T09:23:16;-21.10;91.00
21580;DHT22;10951;59.656;9.666;2024-01-06T09:25:43;-21.00;91.00
21580;DHT22;10951;59.656;9.666;2024-01-06T09:28:10;-20.90;90.80
21580;DHT22;10951;59.656;9.666;2024-01-06T09:30:38;-20.80;90.70
21580;DHT22;10951;59.656;9.666;2024-01-06T09:33:05;-20.70;90.60
21580;DHT22;10951;59.656;9.666;2024-01-06T09:35:33;-20.70;90.50
21580;DHT22;10951;59.656;9.666;2024-01-06T09:38:00;-20.60;90.30
21580;DHT22;10951;59.656;9.666;2024-01-06T09:40:31;-20.60;90.20
21580;DHT22;10951;59.656;9.666;2024-01-06T09:42:59;-20.50;90.20
21580;DHT22;10951;59.656;9.666;2024-01-06T09:45:26;-20.40;90.10
21580;DHT22;10951;59.656;9.666;2024-01-06T09:47:54;-20.30;89.80
21580;DHT22;10951;59.656;9.666;2024-01-06T09:50:22;-20.10;90.10
21580;DHT22;10951;59.656;9.666;2024-01-06T09:52:49;-20.00;90.40
21580;DHT22;10951;59.656;9.666;2024-01-06T09:55:25;-19.80;90.70
21580;DHT22;10951;59.656;9.666;2024-01-06T09:57:54;-19.70;91.20
21580;DHT22;10951;59.656;9.666;2024-01-06T10:00:21;-19.50;91.70
21580;DHT22;10951;59.656;9.666;2024-01-06T10:02:49;-19.30;92.00
21580;DHT22;10951;59.656;9.666;2024-01-06T10:05:18;-19.20;92.00
21580;DHT22;10951;59.656;9.666;2024-01-06T10:07:46;-19.00;91.90
21580;DHT22;10951;59.656;9.666;2024-01-06T10:10:14;-18.90;92.00
21580;DHT22;10951;59.656;9.666;2024-01-06T10:12:42;-18.70;92.10
21580;DHT22;10951;59.656;9.666;2024-01-06T10:15:11;-18.60;91.90
21580;DHT22;10951;59.656;9.666;2024-01-06T10:17:41;-18.50;91.90
21580;DHT22;10951;59.656;9.666;2024-01-06T10:20:11;-18.30;91.90
21580;DHT22;10951;59.656;9.666;2024-01-06T10:22:40;-18.10;92.10
21580;DHT22;10951;59.656;9.666;2024-01-06T10:25:09;-18.00;91.90
21580;DHT22;10951;59.656;9.666;2024-01-06T10:27:40;-17.80;91.70
21580;DHT22;10951;59.656;9.666;2024-01-06T10:30:09;-17.70;91.40
21580;DHT22;10951;59.656;9.666;2024-01-06T10:32:36;-17.60;91.40
21580;DHT22;10951;59.656;9.666;2024-01-06T10:35:04;-17.60;91.10
21580;DHT22;10951;59.656;9.666;2024-01-06T10:37:33;-17.50;91.00
21580;DHT22;10951;59.656;9.666;2024-01-06T10:40:07;-17.50;91.10
21580;DHT22;10951;59.656;9.666;2024-01-06T10:42:36;-17.40;91.70
21580;DHT22;10951;59.656;9.666;2024-01-06T10:45:04;-17.30;92.40
21580;DHT22;10951;59.656;9.666;2024-01-06T10:47:33;-17.10;91.90
21580;DHT22;10951;59.656;9.666;2024-01-06T10:50:01;-17.00;91.10
21580;DHT22;10951;59.656;9.666;2024-01-06T10:52:28;-17.10;90.30
21580;DHT22;10951;59.656;9.666;2024-01-06T10:54:56;-17.20;90.10
21580;DHT22;10951;59.656;9.666;2024-01-06T10:57:23;-17.20;89.40
21580;DHT22;10951;59.656;9.666;2024-01-06T10:59:52;-17.30;89.00
21580;DHT22;10951;59.656;9.666;2024-01-06T11:02:19;-17.40;89.00
21580;DHT22;10951;59.656;9.666;2024-01-06T11:04:48;-17.40;89.20
21580;DHT22;10951;59.656;9.666;2024-01-06T11:07:17;-17.40;89.90
21580;DHT22;10951;59.656;9.666;2024-01-06T11:10:02;-17.30;90.00
21580;DHT22;10951;59.656;9.666;2024-01-06T11:12:32;-17.30;90.20
21580;DHT22;10951;59.656;9.666;2024-01-06T11:15:00;-17.30;90.30
21580;DHT22;10951;59.656;9.666;2024-01-06T11:20:13;-17.20;90.70
21580;DHT22;10951;59.656;9.666;2024-01-06T11:22:40;-17.10;90.70
21580;DHT22;10951;59.656;9.666;2024-01-06T11:25:16;-17.00;91.00
21580;DHT22;10951;59.656;9.666;2024-01-06T11:27:45;-17.00;91.10
21580;DHT22;10951;59.656;9.666;2024-01-06T11:30:39;-16.80;91.50
21580;DHT22;10951;59.656;9.666;2024-01-06T11:33:08;-16.70;91.30
21580;DHT22;10951;59.656;9.666;2024-01-06T11:35:37;-16.60;91.00
21580;DHT22;10951;59.656;9.666;2024-01-06T11:38:07;-16.50;90.80
21580;DHT22;10951;59.656;9.666;2024-01-06T11:40:35;-16.40;90.60
21580;DHT22;10951;59.656;9.666;2024-01-06T11:43:11;-16.40;90.80
21580;DHT22;10951;59.656;9.666;2024-01-06T11:45:41;-16.20;91.30
21580;DHT22;10951;59.656;9.666;2024-01-06T11:48:11;-16.10;91.20
21580;DHT22;10951;59.656;9.666;2024-01-06T11:50:41;-16.00;90.70
21580;DHT22;10951;59.656;9.666;2024-01-06T11:53:08;-15.90;90.50
21580;DHT22;10951;59.656;9.666;2024-01-06T11:55:39;-15.80;90.50
21580;DHT22;10951;59.656;9.666;2024-01-06T11:58:07;-15.80;90.40
21580;DHT22;10951;59.656;9.666;2024-01-06T12:00:35;-15.80;90.70
21580;DHT22;10951;59.656;9.666;2024-01-06T12:03:04;-15.70;91.30
21580;DHT22;10951;59.656;9.666;2024-01-06T12:05:31;-15.70;90.90
21580;DHT22;10951;59.656;9.666;2024-01-06T12:07:59;-15.80;91.10
21580;DHT22;10951;59.656;9.666;2024-01-06T12:10:27;-15.90;91.20
21580;DHT22;10951;59.656;9.666;2024-01-06T12:13:03;-16.00;91.30
21580;DHT22;10951;59.656;9.666;2024-01-06T12:15:32;-16.00;91.80
21580;DHT22;10951;59.656;9.666;2024-01-06T12:18:02;-16.00;91.70
21580;DHT22;10951;59.656;9.666;2024-01-06T12:20:31;-16.00;91.90
21580;DHT22;10951;59.656;9.666;2024-01-06T12:22:59;-15.90;92.60
21580;DHT22;10951;59.656;9.666;2024-01-06T12:25:27;-15.80;92.60
21580;DHT22;10951;59.656;9.666;2024-01-06T12:27:56;-15.70;92.70
21580;DHT22;10951;59.656;9.666;2024-01-06T12:30:23;-15.70;92.10
21580;DHT22;10951;59.656;9.666;2024-01-06T12:32:51;-15.60;92.10
21580;DHT22;10951;59.656;9.666;2024-01-06T12:35:21;-15.50;91.80
21580;DHT22;10951;59.656;9.666;2024-01-06T12:37:51;-15.50;91.60
21580;DHT22;10951;59.656;9.666;2024-01-06T12:40:19;-15.50;91.80
21580;DHT22;10951;59.656;9.666;2024-01-06T12:42:47;-15.50;91.50
21580;DHT22;10951;59.656;9.666;2024-01-06T12:45:14;-15.50;91.70
21580;DHT22;10951;59.656;9.666;2024-01-06T12:47:44;-15.40;92.00
21580;DHT22;10951;59.656;9.666;2024-01-06T12:50:11;-15.40;91.80
21580;DHT22;10951;59.656;9.666;2024-01-06T12:52:38;-15.30;91.90
21580;DHT22;10951;59.656;9.666;2024-01-06T12:55:07;-15.30;92.00
21580;DHT22;10951;59.656;9.666;2024-01-06T12:57:35;-15.30;92.00
21580;DHT22;10951;59.656;9.666;2024-01-06T13:00:03;-15.20;91.70
21580;DHT22;10951;59.656;9.666;2024-01-06T13:02:32;-15.20;91.60
21580;DHT22;10951;59.656;9.666;2024-01-06T13:04:59;-15.20;91.60
21580;DHT22;10951;59.656;9.666;2024-01-06T13:07:26;-15.20;91.50
21580;DHT22;10951;59.656;9.666;2024-01-06T13:09:54;-15.30;91.50
21580;DHT22;10951;59.656;9.666;2024-01-06T13:12:21;-15.20;91.40
21580;DHT22;10951;59.656;9.666;2024-01-06T13:14:50;-15.30;91.30
21580;DHT22;10951;59.656;9.666;2024-01-06T13:17:17;-15.30;91.60
21580;DHT22;10951;59.656;9.666;2024-01-06T13:19:45;-15.30;91.90
21580;DHT22;10951;59.656;9.666;2024-01-06T13:22:12;-15.30;92.10
21580;DHT22;10951;59.656;9.666;2024-01-06T13:24:40;-15.20;92.40
21580;DHT22;10951;59.656;9.666;2024-01-06T13:27:07;-15.20;92.40
21580;DHT22;10951;59.656;9.666;2024-01-06T13:29:35;-15.10;92.90
21580;DHT22;10951;59.656;9.666;2024-01-06T13:32:02;-14.90;92.90
21580;DHT22;10951;59.656;9.666;2024-01-06T13:34:30;-14.80;92.10
21580;DHT22;10951;59.656;9.666;2024-01-06T13:36:57;-14.80;91.60
21580;DHT22;10951;59.656;9.666;2024-01-06T13:39:24;-14.80;91.50
21580;DHT22;10951;59.656;9.666;2024-01-06T13:41:51;-14.80;91.40
21580;DHT22;10951;59.656;9.666;2024-01-06T13:44:18;-14.80;91.60
21580;DHT22;10951;59.656;9.666;2024-01-06T13:46:46;-14.80;91.50
21580;DHT22;10951;59.656;9.666;2024-01-06T13:49:14;-14.80;91.50
21580;DHT22;10951;59.656;9.666;2024-01-06T13:51:42;-14.80;91.60
21580;DHT22;10951;59.656;9.666;2024-01-06T13:54:09;-14.80;91.80
21580;DHT22;10951;59.656;9.666;2024-01-06T13:56:37;-14.80;92.10
21580;DHT22;10951;59.656;9.666;2024-01-06T13:59:04;-14.80;92.10
21580;DHT22;10951;59.656;9.666;2024-01-06T14:01:31;-14.80;92.40
21580;DHT22;10951;59.656;9.666;2024-01-06T14:03:59;-14.80;92.60
21580;DHT22;10951;59.656;9.666;2024-01-06T14:06:27;-14.90;92.70
21580;DHT22;10951;59.656;9.666;2024-01-06T14:08:58;-14.90;92.80
21580;DHT22;10951;59.656;9.666;2024-01-06T14:11:26;-14.80;92.40
21580;DHT22;10951;59.656;9.666;2024-01-06T14:13:53;-14.90;92.00
21580;DHT22;10951;59.656;9.666;2024-01-06T14:16:20;-15.10;92.00
21580;DHT22;10951;59.656;9.666;2024-01-06T14:18:47;-15.20;92.10
21580;DHT22;10951;59.656;9.666;2024-01-06T14:21:15;-15.30;92.30
21580;DHT22;10951;59.656;9.666;2024-01-06T14:23:46;-15.30;92.60
21580;DHT22;10951;59.656;9.666;2024-01-06T14:26:19;-15.40;92.70
21580;DHT22;10951;59.656;9.666;2024-01-06T14:28:50;-15.40;93.00
21580;DHT22;10951;59.656;9.666;2024-01-06T14:31:18;-15.50;93.10
21580;DHT22;10951;59.656;9.666;2024-01-06T14:33:45;-15.50;93.50
21580;DHT22;10951;59.656;9.666;2024-01-06T14:36:12;-15.40;93.50
21580;DHT22;10951;59.656;9.666;2024-01-06T14:38:39;-15.50;93.60
21580;DHT22;10951;59.656;9.666;2024-01-06T14:41:07;-15.50;93.90
21580;DHT22;10951;59.656;9.666;2024-01-06T14:43:34;-15.50;93.90
21580;DHT22;10951;59.656;9.666;2024-01-06T14:46:01;-15.50;93.80
21580;DHT22;10951;59.656;9.666;2024-01-06T14:48:28;-15.40;93.70
21580;DHT22;10951;59.656;9.666;2024-01-06T14:50:55;-15.40;93.40
21580;DHT22;10951;59.656;9.666;2024-01-06T14:53:22;-15.50;93.20
21580;DHT22;10951;59.656;9.666;2024-01-06T14:55:49;-15.60;93.30
21580;DHT22;10951;59.656;9.666;2024-01-06T14:58:16;-15.70;93.40
21580;DHT22;10951;59.656;9.666;2024-01-06T15:00:43;-15.70;93.50
21580;DHT22;10951;59.656;9.666;2024-01-06T15:03:12;-15.80;93.60
21580;DHT22;10951;59.656;9.666;2024-01-06T15:05:39;-15.90;93.50
21580;DHT22;10951;59.656;9.666;2024-01-06T15:08:06;-16.00;94.00
21580;DHT22;10951;59.656;9.666;2024-01-06T15:10:33;-16.00;94.60
21580;DHT22;10951;59.656;9.666;2024-01-06T15:13:01;-15.90;94.90
21580;DHT22;10951;59.656;9.666;2024-01-06T15:15:30;-15.80;95.20
21580;DHT22;10951;59.656;9.666;2024-01-06T15:17:57;-15.80;95.00
21580;DHT22;10951;59.656;9.666;2024-01-06T15:20:24;-15.80;94.80